createdAt,value
2022-08-28T00:01:59.907Z,65769.56
2022-08-28T00:04:26.863Z,65767.91
2022-08-28T00:06:53.283Z,65765.69
2022-08-28T00:09:19.817Z,65762.31
2022-08-28T00:11:47.133Z,65759.00
2022-08-28T00:14:14.450Z,65758.94
2022-08-28T00:21:34.131Z,65742.47
2022-08-28T00:24:00.741Z,65739.13
2022-08-28T00:26:45.580Z,65738.25
2022-08-28T00:29:12.205Z,65739.97
2022-08-28T00:34:08.278Z,65720.78
2022-08-28T00:36:34.967Z,65711.09
2022-08-28T00:39:01.424Z,65712.28
2022-08-28T00:41:31.227Z,65706.00
2022-08-28T00:46:46.779Z,65703.75
2022-08-28T00:49:16.363Z,65708.38
2022-08-28T00:52:02.241Z,65705.03
2022-08-28T00:54:32.957Z,65699.06
2022-08-28T00:59:27.718Z,65689.06
2022-08-28T01:01:57.018Z,65687.22
2022-08-28T01:04:26.986Z,65673.81
2022-08-28T01:09:22.982Z,65679.09
2022-08-28T01:11:52.994Z,65660.47
2022-08-28T01:14:23.043Z,65664.44
2022-08-28T01:16:55.362Z,65655.47
2022-08-28T01:26:57.088Z,65646.81
2022-08-28T01:29:23.504Z,65642.91
2022-08-28T01:31:49.874Z,65639.03
2022-08-28T01:34:16.384Z,65642.94
2022-08-28T01:36:42.955Z,65637.72
2022-08-28T01:41:42.250Z,65635.50
2022-08-28T01:44:09.574Z,65636.84
2022-08-28T01:46:36.201Z,65632.56
2022-08-28T01:49:02.726Z,65626.22
2022-08-28T01:51:29.258Z,65623.28
2022-08-28T01:56:29.747Z,65622.72
2022-08-28T01:58:56.149Z,65618.84
2022-08-28T02:03:49.674Z,65620.16
2022-08-28T02:08:43.143Z,65607.34
2022-08-28T02:16:06.226Z,65599.94
2022-08-28T02:18:32.994Z,65592.34
2022-08-28T02:30:44.802Z,65576.22
2022-08-28T02:33:11.371Z,65566.00
2022-08-28T02:35:40.134Z,65571.06
2022-08-28T02:38:06.515Z,65568.28
2022-08-28T02:40:33.083Z,65559.34
2022-08-28T02:43:00.162Z,65563.28
2022-08-28T02:45:26.571Z,65561.59
2022-08-28T02:47:54.286Z,65569.22
2022-08-28T02:50:21.735Z,65555.09
2022-08-28T02:55:17.811Z,65545.09
2022-08-28T02:57:45.643Z,65535.44
2022-08-28T03:00:15.921Z,65542.72
2022-08-28T03:02:42.575Z,65540.84
2022-08-28T03:05:10.009Z,65528.22
2022-08-28T03:07:36.385Z,65525.44
2022-08-28T03:10:04.249Z,65531.03
2022-08-28T03:12:30.625Z,65524.56
2022-08-28T03:14:57.106Z,65534.41
2022-08-28T03:17:23.535Z,65517.34
2022-08-28T03:22:17.833Z,65506.19
2022-08-28T03:29:37.593Z,65506.44
2022-08-28T03:32:04.066Z,65500.50
2022-08-28T03:34:30.471Z,65499.00
2022-08-28T03:36:56.934Z,65508.88
2022-08-28T03:39:23.370Z,65508.13
2022-08-28T03:41:49.726Z,65496.63
2022-08-28T03:44:16.603Z,65497.34
2022-08-28T03:46:42.990Z,65504.78
2022-08-28T03:49:09.377Z,65494.94
2022-08-28T03:51:35.918Z,65493.47
2022-08-28T03:54:04.217Z,65485.66
2022-08-28T03:59:00.824Z,65496.63
2022-08-28T04:01:28.000Z,65492.91
2022-08-28T04:03:54.465Z,65493.47
2022-08-28T04:06:21.093Z,65510.31
2022-08-28T04:08:48.075Z,65510.34
2022-08-28T04:13:41.884Z,65503.28
2022-08-28T04:16:11.046Z,65492.16
2022-08-28T04:18:40.348Z,65489.41
2022-08-28T04:21:16.313Z,65481.22
2022-08-28T04:23:44.941Z,65477.34
2022-08-28T04:26:17.438Z,65464.00
2022-08-28T04:31:10.969Z,65474.97
2022-08-28T04:33:38.150Z,65474.97
2022-08-28T04:38:44.064Z,65469.97
2022-08-28T04:41:13.602Z,65473.50
2022-08-28T04:43:40.160Z,65467.38
2022-08-28T04:46:08.613Z,65476.28
2022-08-28T04:48:36.177Z,65401.75
2022-08-28T04:55:58.974Z,65466.25
2022-08-28T04:58:27.634Z,65472.59
2022-08-28T05:00:54.544Z,65466.25
2022-08-28T05:03:21.363Z,65473.31
2022-08-28T05:05:51.855Z,65473.84
2022-08-28T05:10:46.960Z,65471.63
2022-08-28T05:13:15.996Z,65474.41
2022-08-28T05:18:13.999Z,65472.75
2022-08-28T05:20:43.317Z,65482.00
2022-08-28T05:23:10.289Z,65478.31
2022-08-28T05:25:39.431Z,65479.81
2022-08-28T05:28:12.020Z,65479.56
2022-08-28T05:33:07.964Z,65477.19
2022-08-28T05:38:01.739Z,65481.06
2022-08-28T05:42:54.570Z,65481.63
2022-08-28T05:45:22.361Z,65481.22
2022-08-28T05:47:48.965Z,65491.06
2022-08-28T05:50:15.386Z,65481.63
2022-08-28T05:52:43.039Z,65485.88
2022-08-28T05:55:12.019Z,65491.28
2022-08-28T05:57:42.015Z,65487.19
2022-08-28T06:05:07.078Z,65495.34
2022-08-28T06:07:33.823Z,65495.91
2022-08-28T06:10:00.698Z,65504.03
2022-08-28T06:12:27.142Z,65499.38
2022-08-28T06:19:50.420Z,65499.91
2022-08-28T06:24:43.465Z,65505.63
2022-08-28T06:29:36.451Z,65526.59
2022-08-28T06:32:04.779Z,65530.66
2022-08-28T06:36:57.777Z,65544.38
2022-08-28T06:41:50.693Z,65547.13
2022-08-28T06:46:52.472Z,65555.09
2022-08-28T06:49:19.222Z,65566.44
2022-08-28T06:51:45.724Z,65563.44
2022-08-28T06:59:05.066Z,65599.63
2022-08-28T07:01:34.806Z,65589.91
2022-08-28T07:04:12.029Z,65607.72
2022-08-28T07:16:30.359Z,65632.34
2022-08-28T07:18:57.410Z,65635.13
2022-08-28T07:23:50.470Z,65663.75
2022-08-28T07:26:20.486Z,65661.63
2022-08-28T07:33:45.537Z,65664.00
2022-08-28T07:36:22.069Z,65678.88
2022-08-28T07:38:57.971Z,65677.75
2022-08-28T07:41:28.225Z,65681.81
2022-08-28T07:46:40.288Z,65686.84
2022-08-28T07:56:29.928Z,65696.66
2022-08-28T07:58:58.247Z,65709.47
2022-08-28T08:03:55.805Z,65723.94
2022-08-28T08:06:33.863Z,65737.47
2022-08-28T08:09:01.815Z,65764.38
2022-08-28T08:14:04.811Z,65764.50
2022-08-28T08:16:35.470Z,65778.06
2022-08-28T08:19:02.379Z,65787.50
2022-08-28T08:23:58.381Z,65821.50
2022-08-28T08:31:19.680Z,65823.19
2022-08-28T08:33:48.730Z,65827.09
2022-08-28T08:36:17.831Z,65820.34
2022-08-28T08:38:44.546Z,65846.56
2022-08-28T08:41:23.011Z,65852.69
2022-08-28T08:59:04.299Z,65839.25
2022-08-28T09:07:00.671Z,65873.06
2022-08-28T09:09:32.079Z,65876.97
2022-08-28T09:12:03.542Z,65879.75
2022-08-28T09:17:19.265Z,65919.34
2022-08-28T09:19:46.186Z,65913.16
2022-08-28T09:22:13.060Z,65917.28
2022-08-28T09:24:41.155Z,65910.44
2022-08-28T09:27:21.476Z,65896.69
2022-08-28T09:29:57.259Z,65893.34
2022-08-28T09:32:41.358Z,65907.66
2022-08-28T09:37:36.907Z,65921.84
2022-08-28T09:40:21.986Z,65940.09
2022-08-28T09:43:23.126Z,65938.28
2022-08-28T09:46:21.571Z,65941.03
2022-08-28T09:48:53.531Z,65945.50
2022-08-28T09:51:22.956Z,65952.44
2022-08-28T09:53:52.361Z,65956.31
2022-08-28T09:56:35.552Z,65962.94
2022-08-28T09:59:06.806Z,65975.59
2022-08-28T10:07:08.013Z,66007.34
2022-08-28T10:12:22.142Z,66019.31
2022-08-28T10:25:38.975Z,66091.66
2022-08-28T10:28:18.836Z,66086.03
2022-08-28T10:41:38.430Z,66089.38
2022-08-28T10:46:41.524Z,66083.97
2022-08-28T10:49:22.889Z,66089.94
2022-08-28T10:54:18.336Z,66099.56
2022-08-28T10:59:25.179Z,66106.31
2022-08-28T11:01:52.296Z,66104.66
2022-08-28T11:04:25.645Z,66111.75
2022-08-28T11:07:15.120Z,66120.84
2022-08-28T11:09:48.470Z,66113.34
2022-08-28T11:12:18.420Z,66116.78
2022-08-28T11:14:48.422Z,66115.09
2022-08-28T11:20:13.826Z,66107.78
2022-08-28T11:22:52.926Z,66119.72
2022-08-28T11:28:11.427Z,66138.53
2022-08-28T11:33:08.819Z,66128.44
2022-08-28T11:40:31.677Z,66139.81
2022-08-28T11:43:16.690Z,66149.06
2022-08-28T11:48:28.226Z,66163.59
2022-08-28T11:50:58.892Z,66155.78
2022-08-28T11:53:54.616Z,66167.75
2022-08-28T11:56:35.801Z,66176.13
2022-08-28T12:09:39.894Z,66175.56
2022-08-28T12:12:13.456Z,66191.09
2022-08-28T12:14:39.812Z,66189.53
2022-08-28T12:19:55.491Z,66193.44
2022-08-28T12:27:38.350Z,66219.13
2022-08-28T12:30:05.718Z,66226.94
2022-08-28T12:40:28.163Z,66245.91
2022-08-28T12:50:32.280Z,66258.63
2022-08-28T12:53:03.267Z,66278.03
2022-08-28T13:00:33.188Z,66260.22
2022-08-28T13:07:56.998Z,66259.81
2022-08-28T13:10:29.539Z,66272.75
2022-08-28T13:15:53.463Z,66284.25
2022-08-28T13:21:33.046Z,66272.50
2022-08-28T13:24:21.042Z,66268.84
2022-08-28T13:34:29.123Z,66271.94
2022-08-28T13:39:29.214Z,66274.44
2022-08-28T13:41:59.242Z,66296.47
2022-08-28T13:47:08.871Z,66313.94
2022-08-28T13:49:35.550Z,66289.84
2022-08-28T13:52:05.022Z,66285.38
2022-08-28T13:54:31.810Z,66283.13
2022-08-28T14:07:07.946Z,66290.47
2022-08-28T14:12:03.348Z,66293.81
2022-08-28T14:19:23.535Z,66324.16
2022-08-28T14:21:50.225Z,66362.19
2022-08-28T14:24:17.622Z,66362.19
2022-08-28T14:31:41.040Z,66359.78
2022-08-28T14:34:09.306Z,66364.28
2022-08-28T14:41:34.481Z,66370.00
2022-08-28T14:49:00.453Z,66335.81
2022-08-28T14:51:27.743Z,66336.47
2022-08-28T14:56:22.225Z,66320.00
2022-08-28T15:01:40.203Z,66316.88
2022-08-28T15:04:10.961Z,66305.16
2022-08-28T15:09:05.093Z,66326.72
2022-08-28T15:11:31.592Z,66328.47
2022-08-28T15:21:28.647Z,66333.50
2022-08-28T15:26:25.658Z,66318.88
2022-08-28T15:28:55.675Z,66322.25
2022-08-28T15:31:24.457Z,66328.97
2022-08-28T15:41:31.674Z,66379.94
2022-08-28T15:44:00.763Z,66374.31
2022-08-28T15:48:55.816Z,66374.19
2022-08-28T15:53:52.833Z,66363.78
2022-08-28T15:56:19.992Z,66379.50
2022-08-28T15:58:46.664Z,66383.84
2022-08-28T16:01:13.640Z,66385.13
2022-08-28T16:03:40.186Z,66381.50
2022-08-28T16:06:16.376Z,66383.84
2022-08-28T16:11:14.073Z,66357.66
2022-08-28T16:13:40.780Z,66344.59
2022-08-28T16:16:07.272Z,66341.97
2022-08-28T16:18:33.699Z,66333.56
2022-08-28T16:21:04.532Z,66338.13
2022-08-28T16:26:00.156Z,66335.81
2022-08-28T16:30:54.007Z,66345.75
2022-08-28T16:33:22.130Z,66346.84
2022-08-28T16:35:54.937Z,66346.84
2022-08-28T16:38:23.374Z,66357.47
2022-08-28T16:40:49.865Z,66355.47
2022-08-28T16:43:16.541Z,66345.41
2022-08-28T16:45:44.968Z,66314.97
2022-08-28T16:48:12.669Z,66319.69
2022-08-28T16:53:10.070Z,66316.34
2022-08-28T16:58:04.372Z,66320.56
2022-08-28T17:00:31.328Z,66327.34
2022-08-28T17:02:57.828Z,66331.97
2022-08-28T17:10:21.781Z,66331.97
2022-08-28T17:12:48.483Z,66319.44
2022-08-28T17:17:42.078Z,66309.47
2022-08-28T17:22:56.691Z,66285.03
2022-08-28T17:25:24.452Z,66296.59
2022-08-28T17:27:51.330Z,66288.16
2022-08-28T17:32:46.102Z,66276.09
2022-08-28T17:35:12.779Z,66271.66
2022-08-28T17:42:36.444Z,66258.63
2022-08-28T17:47:32.513Z,66239.06
2022-08-28T17:52:26.238Z,66221.75
2022-08-28T17:54:53.284Z,66213.75
2022-08-28T17:57:19.834Z,66204.59
2022-08-28T17:59:46.290Z,66202.38
2022-08-28T18:04:43.805Z,66191.75
2022-08-28T18:09:36.703Z,66165.91
2022-08-28T18:12:03.650Z,66164.22
2022-08-28T18:14:31.127Z,66144.28
2022-08-28T18:16:57.695Z,66138.72
2022-08-28T18:19:24.226Z,66131.84
2022-08-28T18:21:50.735Z,66128.66
2022-08-28T18:29:11.012Z,66107.84
2022-08-28T18:31:37.573Z,66101.16
2022-08-28T18:34:04.143Z,66087.38
2022-08-28T18:38:57.771Z,66065.44
2022-08-28T18:44:11.949Z,66059.47
2022-08-28T18:46:38.460Z,66035.25
2022-08-28T18:49:04.979Z,66032.69
2022-08-28T18:56:30.355Z,66020.09
2022-08-28T18:58:59.322Z,66009.66
2022-08-28T19:01:26.010Z,66001.31
2022-08-28T19:03:54.119Z,65990.09
2022-08-28T19:06:20.741Z,65987.78
2022-08-28T19:08:47.254Z,65978.06
2022-08-28T19:18:35.054Z,65957.81
2022-08-28T19:26:02.550Z,65937.75
2022-08-28T19:28:29.030Z,65944.88
2022-08-28T19:30:55.522Z,65924.38
2022-08-28T19:33:22.038Z,65916.03
2022-08-28T19:35:48.575Z,65916.03
2022-08-28T19:38:15.282Z,65906.72
2022-08-28T19:40:42.005Z,65907.66
2022-08-28T19:43:08.585Z,65900.41
2022-08-28T19:45:41.897Z,65893.75
2022-08-28T19:48:08.503Z,65888.34
2022-08-28T19:50:34.910Z,65890.63
2022-08-28T19:55:28.591Z,65880.38
2022-08-28T19:57:55.057Z,65874.22
2022-08-28T20:00:24.680Z,65873.72
2022-08-28T20:02:52.265Z,65869.78
2022-08-28T20:05:20.039Z,65861.44
2022-08-28T20:07:46.595Z,65854.34
2022-08-28T20:12:39.910Z,65846.22
2022-08-28T20:15:16.104Z,65846.28
2022-08-28T20:17:43.700Z,65830.75
2022-08-28T20:20:11.662Z,65829.16
2022-08-28T20:22:39.233Z,65815.38
2022-08-28T20:25:07.314Z,65814.81
2022-08-28T20:27:33.875Z,65813.16
2022-08-28T20:30:09.330Z,65811.28
2022-08-28T20:32:40.290Z,65799.56
2022-08-28T20:35:09.793Z,65809.88
2022-08-28T20:37:45.088Z,65803.13
2022-08-28T20:40:18.021Z,65797.41
2022-08-28T20:42:45.785Z,65800.78
2022-08-28T20:45:13.990Z,65798.88
2022-08-28T20:47:40.594Z,65788.09
2022-08-28T20:50:07.579Z,65782.94
2022-08-28T20:52:34.067Z,65779.56
2022-08-28T20:59:54.046Z,65770.66
2022-08-28T21:02:24.606Z,65772.03
2022-08-28T21:04:52.467Z,65761.22
2022-08-28T21:07:21.497Z,65758.59
2022-08-28T21:10:05.318Z,65764.78
2022-08-28T21:15:01.019Z,65748.41
2022-08-28T21:17:29.711Z,65748.97
2022-08-28T21:20:09.112Z,65738.00
2022-08-28T21:22:37.174Z,65738.25
2022-08-28T21:25:07.013Z,65731.91
2022-08-28T21:27:33.525Z,65735.63
2022-08-28T21:30:00.811Z,65725.22
2022-08-28T21:32:29.309Z,65718.31
2022-08-28T21:34:56.019Z,65712.44
2022-08-28T21:37:23.180Z,65719.72
2022-08-28T21:39:49.599Z,65712.28
2022-08-28T21:42:16.060Z,65710.97
2022-08-28T21:44:45.533Z,65708.75
2022-08-28T21:47:18.415Z,65706.69
2022-08-28T21:49:47.871Z,65700.19
2022-08-28T21:52:14.275Z,65691.81
2022-08-28T21:54:40.658Z,65696.50
2022-08-28T21:57:07.085Z,65691.50
2022-08-28T22:02:04.859Z,65685.00
2022-08-28T22:06:57.693Z,65678.31
2022-08-28T22:09:24.127Z,65672.22
2022-08-28T22:14:16.972Z,65661.81
2022-08-28T22:16:44.709Z,65652.91
2022-08-28T22:19:11.158Z,65649.41
2022-08-28T22:21:56.246Z,65645.50
2022-08-28T22:24:23.462Z,65642.19
2022-08-28T22:26:50.071Z,65635.50
2022-08-28T22:29:24.211Z,65627.91
2022-08-28T22:31:50.728Z,65634.06
2022-08-28T22:34:17.177Z,65622.72
2022-08-28T22:36:43.625Z,65625.88
2022-08-28T22:39:10.146Z,65620.91
2022-08-28T22:41:37.335Z,65612.72
2022-08-28T22:44:04.404Z,65610.72
2022-08-28T22:46:30.840Z,65607.41
2022-08-28T22:48:57.330Z,65598.84
2022-08-28T22:53:50.157Z,65583.28
2022-08-28T22:56:17.687Z,65577.72
2022-08-28T23:03:40.612Z,65563.44
2022-08-28T23:06:07.432Z,65560.69
2022-08-28T23:08:34.267Z,65568.50
2022-08-28T23:11:01.306Z,65557.88
2022-08-28T23:13:28.303Z,65555.50
2022-08-28T23:15:54.846Z,65555.50
2022-08-28T23:18:21.597Z,65548.97
2022-08-28T23:20:50.728Z,65549.94
2022-08-28T23:23:18.783Z,65548.81
2022-08-28T23:25:45.500Z,65545.88
2022-08-28T23:30:39.131Z,65539.00
2022-08-28T23:33:08.302Z,65536.97
2022-08-28T23:35:35.990Z,65532.88
2022-08-28T23:38:03.922Z,65533.63
2022-08-28T23:43:00.710Z,65519.00
2022-08-28T23:47:54.768Z,65509.94
2022-08-28T23:52:50.207Z,65514.97
2022-08-28T23:55:19.605Z,65507.38
